sensor_id;sensor_type;location;lat;lon;timestamp;P1;durP1;ratioP1;P2;durP2;ratioP2
61739;SDS011;47645;45.288;12.038;2024-03-29T00:01:48;12.7;;;9.0;;
61739;SDS011;47645;45.288;12.038;2024-03-29T00:11:49;9.9;;;7.5;;
61739;SDS011;47645;45.288;12.038;2024-03-29T00:21:49;11.5;;;8.1;;
61739;SDS011;47645;45.288;12.038;2024-03-29T00:31:50;11.7;;;8.2;;
61739;SDS011;47645;45.288;12.038;2024-03-29T00:41:51;11.7;;;8.9;;
61739;SDS011;47645;45.288;12.038;2024-03-29T00:51:51;12.9;;;9.5;;
61739;SDS011;47645;45.288;12.038;2024-03-29T01:01:53;12.2;;;9.3;;
61739;SDS011;47645;45.288;12.038;2024-03-29T01:11:54;14.8;;;9.8;;
61739;SDS011;47645;45.288;12.038;2024-03-29T01:21:54;12.8;;;10.0;;
61739;SDS011;47645;45.288;12.038;2024-03-29T01:31:54;12.6;;;9.0;;
61739;SDS011;47645;45.288;12.038;2024-03-29T01:41:55;17.1;;;12.0;;
61739;SDS011;47645;45.288;12.038;2024-03-29T01:51:55;20.6;;;13.8;;
61739;SDS011;47645;45.288;12.038;2024-03-29T02:01:56;18.6;;;13.7;;
61739;SDS011;47645;45.288;12.038;2024-03-29T02:11:57;20.9;;;15.1;;
61739;SDS011;47645;45.288;12.038;2024-03-29T02:21:58;22.3;;;16.0;;
61739;SDS011;47645;45.288;12.038;2024-03-29T02:31:58;19.9;;;14.3;;
61739;SDS011;47645;45.288;12.038;2024-03-29T02:41:59;26.4;;;15.4;;
61739;SDS011;47645;45.288;12.038;2024-03-29T02:51:59;21.0;;;15.2;;
61739;SDS011;47645;45.288;12.038;2024-03-29T03:02:00;21.6;;;15.2;;
61739;SDS011;47645;45.288;12.038;2024-03-29T03:12:01;20.4;;;14.5;;
61739;SDS011;47645;45.288;12.038;2024-03-29T03:22:01;20.4;;;14.9;;
61739;SDS011;47645;45.288;12.038;2024-03-29T03:32:02;22.1;;;15.3;;
61739;SDS011;47645;45.288;12.038;2024-03-29T03:42:03;20.2;;;15.3;;
61739;SDS011;47645;45.288;12.038;2024-03-29T03:52:03;23.2;;;15.3;;
61739;SDS011;47645;45.288;12.038;2024-03-29T04:02:03;15.1;;;11.4;;
61739;SDS011;47645;45.288;12.038;2024-03-29T04:12:04;18.4;;;13.4;;
61739;SDS011;47645;45.288;12.038;2024-03-29T04:22:04;20.1;;;13.4;;
61739;SDS011;47645;45.288;12.038;2024-03-29T04:32:05;22.2;;;16.0;;
61739;SDS011;47645;45.288;12.038;2024-03-29T04:42:07;21.7;;;15.5;;
61739;SDS011;47645;45.288;12.038;2024-03-29T04:52:06;21.1;;;15.1;;
61739;SDS011;47645;45.288;12.038;2024-03-29T05:02:07;26.0;;;18.6;;
61739;SDS011;47645;45.288;12.038;2024-03-29T05:12:08;31.6;;;21.7;;
61739;SDS011;47645;45.288;12.038;2024-03-29T05:22:08;33.6;;;22.3;;
61739;SDS011;47645;45.288;12.038;2024-03-29T05:32:09;31.8;;;22.3;;
61739;SDS011;47645;45.288;12.038;2024-03-29T05:42:10;33.7;;;22.0;;
61739;SDS011;47645;45.288;12.038;2024-03-29T05:52:13;32.0;;;21.8;;
61739;SDS011;47645;45.288;12.038;2024-03-29T06:02:11;32.4;;;23.0;;
61739;SDS011;47645;45.288;12.038;2024-03-29T06:12:12;33.4;;;22.5;;
61739;SDS011;47645;45.288;12.038;2024-03-29T06:22:12;36.5;;;23.7;;
61739;SDS011;47645;45.288;12.038;2024-03-29T06:32:13;35.3;;;23.5;;
61739;SDS011;47645;45.288;12.038;2024-03-29T06:42:14;38.6;;;23.0;;
61739;SDS011;47645;45.288;12.038;2024-03-29T06:52:14;36.5;;;23.1;;
61739;SDS011;47645;45.288;12.038;2024-03-29T07:02:15;36.3;;;23.2;;
61739;SDS011;47645;45.288;12.038;2024-03-29T07:12:16;35.4;;;24.3;;
61739;SDS011;47645;45.288;12.038;2024-03-29T07:22:16;27.3;;;19.3;;
61739;SDS011;47645;45.288;12.038;2024-03-29T07:32:17;27.4;;;19.9;;
61739;SDS011;47645;45.288;12.038;2024-03-29T07:42:19;27.9;;;17.6;;
61739;SDS011;47645;45.288;12.038;2024-03-29T07:52:19;28.0;;;17.1;;
61739;SDS011;47645;45.288;12.038;2024-03-29T08:02:19;30.6;;;17.7;;
61739;SDS011;47645;45.288;12.038;2024-03-29T08:12:23;24.7;;;15.5;;
61739;SDS011;47645;45.288;12.038;2024-03-29T08:22:21;21.8;;;14.5;;
61739;SDS011;47645;45.288;12.038;2024-03-29T08:32:21;21.9;;;15.4;;
61739;SDS011;47645;45.288;12.038;2024-03-29T08:42:22;19.8;;;13.4;;
61739;SDS011;47645;45.288;12.038;2024-03-29T08:52:23;20.8;;;12.6;;
61739;SDS011;47645;45.288;12.038;2024-03-29T09:02:23;18.9;;;11.4;;
61739;SDS011;47645;45.288;12.038;2024-03-29T09:12:24;18.3;;;10.8;;
61739;SDS011;47645;45.288;12.038;2024-03-29T09:22:25;15.3;;;10.1;;
61739;SDS011;47645;45.288;12.038;2024-03-29T09:32:26;17.9;;;10.2;;
61739;SDS011;47645;45.288;12.038;2024-03-29T09:42:27;15.3;;;8.9;;
61739;SDS011;47645;45.288;12.038;2024-03-29T09:52:27;17.1;;;9.0;;
61739;SDS011;47645;45.288;12.038;2024-03-29T10:02:29;15.7;;;8.6;;
61739;SDS011;47645;45.288;12.038;2024-03-29T10:12:29;15.9;;;8.3;;
61739;SDS011;47645;45.288;12.038;2024-03-29T10:22:30;11.3;;;7.2;;
61739;SDS011;47645;45.288;12.038;2024-03-29T10:32:30;15.2;;;7.3;;
61739;SDS011;47645;45.288;12.038;2024-03-29T10:42:33;15.5;;;7.3;;
61739;SDS011;47645;45.288;12.038;2024-03-29T10:52:32;13.4;;;6.7;;
61739;SDS011;47645;45.288;12.038;2024-03-29T11:02:35;9.9;;;5.5;;
61739;SDS011;47645;45.288;12.038;2024-03-29T11:12:35;16.1;;;6.8;;
61739;SDS011;47645;45.288;12.038;2024-03-29T11:22:35;10.7;;;5.2;;
61739;SDS011;47645;45.288;12.038;2024-03-29T11:32:38;8.1;;;4.1;;
61739;SDS011;47645;45.288;12.038;2024-03-29T11:42:37;11.2;;;4.7;;
61739;SDS011;47645;45.288;12.038;2024-03-29T11:52:38;12.1;;;4.7;;
61739;SDS011;47645;45.288;12.038;2024-03-29T12:02:39;13.6;;;4.7;;
61739;SDS011;47645;45.288;12.038;2024-03-29T12:12:42;10.0;;;3.8;;
61739;SDS011;47645;45.288;12.038;2024-03-29T12:22:41;10.7;;;3.1;;
61739;SDS011;47645;45.288;12.038;2024-03-29T12:32:42;8.3;;;3.2;;
61739;SDS011;47645;45.288;12.038;2024-03-29T12:42:43;9.7;;;3.2;;
61739;SDS011;47645;45.288;12.038;2024-03-29T12:52:44;9.2;;;3.1;;
61739;SDS011;47645;45.288;12.038;2024-03-29T13:02:45;12.6;;;3.6;;
61739;SDS011;47645;45.288;12.038;2024-03-29T13:12:47;10.3;;;2.8;;
61739;SDS011;47645;45.288;12.038;2024-03-29T13:22:49;9.4;;;3.0;;
61739;SDS011;47645;45.288;12.038;2024-03-29T13:32:49;11.4;;;3.6;;
61739;SDS011;47645;45.288;12.038;2024-03-29T13:42:50;9.8;;;3.7;;
61739;SDS011;47645;45.288;12.038;2024-03-29T13:52:52;12.2;;;3.8;;
61739;SDS011;47645;45.288;12.038;2024-03-29T14:02:52;11.0;;;3.1;;
61739;SDS011;47645;45.288;12.038;2024-03-29T14:12:54;11.1;;;3.0;;
61739;SDS011;47645;45.288;12.038;2024-03-29T14:22:58;10.2;;;2.6;;
61739;SDS011;47645;45.288;12.038;2024-03-29T14:32:55;13.9;;;3.5;;
61739;SDS011;47645;45.288;12.038;2024-03-29T14:42:58;11.3;;;2.6;;
61739;SDS011;47645;45.288;12.038;2024-03-29T14:52:57;11.3;;;2.3;;
61739;SDS011;47645;45.288;12.038;2024-03-29T15:02:58;11.8;;;3.8;;
61739;SDS011;47645;45.288;12.038;2024-03-29T15:12:59;14.5;;;2.8;;
61739;SDS011;47645;45.288;12.038;2024-03-29T15:23:00;14.2;;;3.4;;
61739;SDS011;47645;45.288;12.038;2024-03-29T15:33:01;11.4;;;3.0;;
61739;SDS011;47645;45.288;12.038;2024-03-29T15:43:03;12.9;;;3.0;;
61739;SDS011;47645;45.288;12.038;2024-03-29T15:53:04;11.9;;;2.7;;
61739;SDS011;47645;45.288;12.038;2024-03-29T16:03:04;10.3;;;2.5;;
61739;SDS011;47645;45.288;12.038;2024-03-29T16:13:05;14.1;;;2.7;;
61739;SDS011;47645;45.288;12.038;2024-03-29T16:23:07;16.3;;;3.3;;
61739;SDS011;47645;45.288;12.038;2024-03-29T16:33:07;18.1;;;3.1;;
61739;SDS011;47645;45.288;12.038;2024-03-29T16:43:13;16.1;;;3.5;;
61739;SDS011;47645;45.288;12.038;2024-03-29T16:53:09;13.9;;;3.8;;
61739;SDS011;47645;45.288;12.038;2024-03-29T17:03:10;19.3;;;6.4;;
61739;SDS011;47645;45.288;12.038;2024-03-29T17:13:11;18.9;;;4.8;;
61739;SDS011;47645;45.288;12.038;2024-03-29T17:23:12;16.0;;;3.8;;
61739;SDS011;47645;45.288;12.038;2024-03-29T17:33:13;15.7;;;3.4;;
61739;SDS011;47645;45.288;12.038;2024-03-29T17:43:14;14.5;;;3.0;;
61739;SDS011;47645;45.288;12.038;2024-03-29T17:53:14;17.0;;;3.3;;
61739;SDS011;47645;45.288;12.038;2024-03-29T18:03:15;19.0;;;3.7;;
61739;SDS011;47645;45.288;12.038;2024-03-29T18:13:16;14.4;;;4.0;;
61739;SDS011;47645;45.288;12.038;2024-03-29T18:23:17;18.6;;;4.5;;
61739;SDS011;47645;45.288;12.038;2024-03-29T18:33:18;19.8;;;4.7;;
61739;SDS011;47645;45.288;12.038;2024-03-29T18:43:20;21.6;;;5.8;;
61739;SDS011;47645;45.288;12.038;2024-03-29T18:53:20;25.6;;;5.4;;
61739;SDS011;47645;45.288;12.038;2024-03-29T19:03:22;26.4;;;5.1;;
61739;SDS011;47645;45.288;12.038;2024-03-29T19:13:22;24.6;;;4.7;;
61739;SDS011;47645;45.288;12.038;2024-03-29T19:23:23;31.5;;;5.2;;
61739;SDS011;47645;45.288;12.038;2024-03-29T19:33:23;26.2;;;4.5;;
61739;SDS011;47645;45.288;12.038;2024-03-29T19:43:24;27.3;;;5.4;;
61739;SDS011;47645;45.288;12.038;2024-03-29T19:53:25;22.7;;;5.1;;
61739;SDS011;47645;45.288;12.038;2024-03-29T20:03:26;32.4;;;4.9;;
61739;SDS011;47645;45.288;12.038;2024-03-29T20:13:27;32.2;;;5.9;;
61739;SDS011;47645;45.288;12.038;2024-03-29T20:23:28;26.9;;;4.5;;
61739;SDS011;47645;45.288;12.038;2024-03-29T20:33:30;26.2;;;4.7;;
61739;SDS011;47645;45.288;12.038;2024-03-29T20:43:29;32.1;;;5.6;;
61739;SDS011;47645;45.288;12.038;2024-03-29T20:53:30;37.5;;;5.3;;
61739;SDS011;47645;45.288;12.038;2024-03-29T21:13:32;31.9;;;5.4;;
61739;SDS011;47645;45.288;12.038;2024-03-29T21:23:36;34.0;;;5.9;;
61739;SDS011;47645;45.288;12.038;2024-03-29T21:33:33;28.7;;;4.4;;
61739;SDS011;47645;45.288;12.038;2024-03-29T21:43:34;30.4;;;5.0;;
61739;SDS011;47645;45.288;12.038;2024-03-29T21:53:35;32.5;;;4.3;;
61739;SDS011;47645;45.288;12.038;2024-03-29T22:03:36;30.7;;;5.6;;
61739;SDS011;47645;45.288;12.038;2024-03-29T22:13:36;30.4;;;4.9;;
61739;SDS011;47645;45.288;12.038;2024-03-29T22:23:37;29.0;;;4.4;;
61739;SDS011;47645;45.288;12.038;2024-03-29T22:33:38;38.0;;;4.6;;
61739;SDS011;47645;45.288;12.038;2024-03-29T22:43:39;31.7;;;5.1;;
61739;SDS011;47645;45.288;12.038;2024-03-29T22:53:40;36.2;;;5.3;;
61739;SDS011;47645;45.288;12.038;2024-03-29T23:03:42;37.9;;;5.3;;
61739;SDS011;47645;45.288;12.038;2024-03-29T23:13:41;42.5;;;6.1;;
61739;SDS011;47645;45.288;12.038;2024-03-29T23:23:42;35.2;;;6.1;;
61739;SDS011;47645;45.288;12.038;2024-03-29T23:33:43;31.9;;;5.6;;
61739;SDS011;47645;45.288;12.038;2024-03-29T23:43:44;34.1;;;5.9;;
61739;SDS011;47645;45.288;12.038;2024-03-29T23:53:45;35.7;;;6.2;;
